• Join FlightAware (Why Join?)
  • Login
  • US Flag 
07:15PM EDT


 

Airport Tracker/Info


-or-


 

Live Flight TrackerFlight Track Log ✈ AAY863 ✈ 12-May-2013 ✈ KCID - KPIE

Flight Track Log - Related Links

Times and Time Zones

All times are in EDT time to prevent confusion due to time zone crossing. See the AAY863 flight status page for this flight to view local times or setup timezone preferences in your user account.

Time Position Orientation Groundspeed Altitude Reporting Facility
EDT Latitude Longitude Course Direction KTS MPH feet Rate Location/Type
07:19PM 41.8358 -91.7919 143° Southeast 269 310 3,900  Level Chicago Center
07:20PM 41.7500 -91.7436 157° South 278 320 7,600 3,000 Climbing Chicago Center
07:21PM 41.6719 -91.7017 158° South 304 350 10,100 1,920 Climbing Chicago Center
07:22PM 41.5778 -91.6461 156° South 367 422 11,600 1,740 Climbing Chicago Center
07:23PM 41.4831 -91.5733 150° Southeast 394 453 13,800 2,220 Climbing Chicago Center
07:24PM 41.0853 -91.1019 143° Southeast  Level FlightAware Approximate
07:24PM 41.3961 -91.4656 137° Southeast 427 491 16,200  Level Chicago Center
07:25PM 41.2861 -91.3372 139° Southeast 440 506 18,400 1,920 Climbing Chicago Center
07:26PM 41.2042 -91.2392 138° Southeast 457 526 20,200 1,860 Climbing Chicago Center
07:27PM 41.0878 -91.1025 138° Southeast 466 536 22,300 1,800 Climbing Chicago Center
07:28PM 40.9881 -90.9856 138° Southeast 476 548 23,900 1,500 Climbing Chicago Center
07:29PM 40.8861 -90.8658 138° Southeast 489 563 25,400 1,500 Climbing Chicago Center
07:30PM 40.7825 -90.7453 139° Southeast 496 571 27,100 1,560 Climbing Chicago Center
07:31PM 40.6803 -90.6289 139° Southeast 491 565 28,700 1,560 Climbing Chicago Center
07:32PM 40.5783 -90.5117 139° Southeast 490 564 30,400 1,080 Climbing Chicago Center
07:34PM 40.4594 -90.3736 139° Southeast 481 554 31,000 240 Climbing Chicago Center
07:35PM 40.3589 -90.2608 139° Southeast 480 552 31,000  Level Chicago Center
07:36PM 40.2578 -90.1450 139° Southeast 485 558 31,000  Level Chicago Center
07:37PM 40.1569 -90.0297 139° Southeast 485 558 31,000  Level Chicago Center
07:38PM 40.0544 -89.9153 139° Southeast 487 560 31,000  Level Chicago Center
07:38PM 40.0133 -89.8681 139° Southeast 488 562 31,000  Level Kansas City Center
07:39PM 39.9097 -89.7519 139° Southeast 490 564 31,000 480 Level Kansas City Center
07:40PM 39.8075 -89.6375 139° Southeast 489 563 32,100 900 Climbing Kansas City Center
07:41PM 39.6917 -89.5222 143° Southeast 481 554 32,900 420 Climbing Kansas City Center
07:42PM 39.5864 -89.4131 141° Southeast 481 554 33,000  Climbing Kansas City Center
07:43PM 39.4814 -89.3050 142° Southeast 482 555 33,000  Level Kansas City Center
07:44PM 39.3750 -89.1967 142° Southeast 483 556 33,000  Level Kansas City Center
07:45PM 39.2683 -89.0894 142° Southeast 483 556 33,000  Level Kansas City Center
07:46PM 39.1622 -88.9814 142° Southeast 485 558 33,000  Level Kansas City Center
07:47PM 39.0619 -88.8753 141° Southeast 472 543 33,000  Level Kansas City Center
07:48PM 38.9347 -88.7467 142° Southeast 479 551 33,000  Level Kansas City Center
07:49PM 38.8289 -88.6406 142° Southeast 482 555 33,000  Level Kansas City Center
07:50PM 38.7103 -88.5250 143° Southeast 484 557 33,000  Level Kansas City Center
07:51PM 38.6044 -88.4208 142° Southeast 482 555 33,000  Level Kansas City Center
07:52PM 38.4972 -88.3164 143° Southeast 482 555 33,000  Level Kansas City Center
07:53PM 38.3906 -88.2114 142° Southeast 483 556 33,000  Level Kansas City Center
07:54PM 38.2839 -88.1078 143° Southeast 483 556 33,000  Level Kansas City Center
07:55PM 38.2425 -88.0672 142° Southeast 481 554 33,000  Level Indianapolis Center
07:56PM 38.1378 -87.9633 142° Southeast 480 552 33,000  Level Indianapolis Center
07:56PM 38.0719 -87.9003 143° Southeast 481 554 33,000  Level Kansas City Center
07:57PM 38.0306 -87.8619 144° Southeast 480 552 33,000  Level Indianapolis Center
07:58PM 37.9228 -87.7603 143° Southeast 483 556 33,000  Level Indianapolis Center
07:59PM 37.7822 -87.6719 154° Southeast 472 543 33,000  Level Indianapolis Center
08:00PM 37.6775 -87.6083 154° Southeast 468 539 33,000  Level Indianapolis Center
08:01PM 37.5583 -87.5367 155° Southeast 470 541 33,000  Level Indianapolis Center
08:01PM 37.5222 -87.5122 152° Southeast 472 543 33,000  Level Memphis Center
08:02PM 37.4039 -87.4381 154° Southeast 467 537 33,000  Level Memphis Center
08:03PM 37.2750 -87.3647 156° South 472 543 33,000  Level Memphis Center
08:04PM 37.1567 -87.2936 154° Southeast 472 543 33,000  Level Memphis Center
08:05PM 37.0403 -87.2228 154° Southeast 466 536 33,000  Level Memphis Center
08:06PM 36.9239 -87.1519 154° Southeast 472 543 33,000  Level Memphis Center
08:07PM 36.8033 -87.0869 157° South 472 543 33,000  Level Memphis Center
08:08PM 36.6850 -87.0294 159° South 461 531 33,000  Level Memphis Center
08:09PM 36.5647 -86.9725 159° South 456 525 33,000  Level Memphis Center
08:10PM 36.4444 -86.9156 159° South 462 532 33,000  Level Memphis Center
08:11PM 36.3239 -86.8589 159° South 462 532 33,000  Level Memphis Center
08:12PM 36.2056 -86.8050 160° South 462 532 33,000  Level Memphis Center
08:13PM 36.0872 -86.7483 159° South 457 526 33,000  Level Memphis Center
08:16PM 35.8142 -86.6225 160° South 465 535 33,000  Level Atlanta Center
08:17PM 35.6922 -86.5700 161° South 465 535 33,000  Level Atlanta Center
08:18PM 35.5703 -86.5128 159° South 465 535 33,000  Level Atlanta Center
08:19PM 35.4503 -86.4581 160° South 465 535 33,000  Level Atlanta Center
08:20PM 35.3200 -86.3983 159° South 460 529 33,000  Level Atlanta Center
08:21PM 35.2042 -86.3492 161° South 454 522 33,000  Level Atlanta Center
08:22PM 35.0861 -86.3078 164° South 443 510 33,000  Level Atlanta Center
08:23PM 34.9719 -86.2669 164° South 438 504 33,000  Level Atlanta Center
08:24PM 34.8517 -86.2281 165° South 438 504 33,000  Level Atlanta Center
08:25PM 34.7336 -86.1872 164° South 433 498 33,000  Level Atlanta Center
08:26PM 34.6131 -86.1486 165° South 438 504 33,000  Level Atlanta Center
08:27PM 34.4947 -86.1106 165° South 438 504 33,000  Level Atlanta Center
08:28PM 34.3744 -86.0672 163° South 438 504 33,000  Level Atlanta Center
08:29PM 34.2583 -86.0167 160° South 438 504 33,000  Level Atlanta Center
08:30PM 34.1383 -85.9639 160° South 452 520 33,000  Level Atlanta Center
08:31PM 34.0181 -85.9058 158° South 452 520 33,000  Level Atlanta Center
08:32PM 33.9000 -85.8533 160° South 457 526 33,000  Level Atlanta Center
08:33PM 33.8067 -85.8114 160° South 457 526 33,000  Level Atlanta Center
08:34PM 33.6758 -85.7536 160° South 457 526 33,000  Level Atlanta Center
08:35PM 33.5472 -85.6964 160° South 451 519 33,000  Level Atlanta Center
08:36PM 33.4247 -85.6417 160° South 458 527 33,000  Level Atlanta Center
08:37PM 33.3192 -85.5875 157° South 464 534 33,000  Level Atlanta Center
08:38PM 33.1967 -85.5333 160° South 464 534 33,000  Level Atlanta Center
08:39PM 33.0658 -85.4742 159° South 464 534 33,000  Level Atlanta Center
08:40PM 32.9475 -85.4200 159° South 464 534 33,000  Level Atlanta Center
08:41PM 32.8250 -85.3639 159° South 469 540 33,000  Level Atlanta Center
08:42PM 32.7022 -85.3100 160° South 469 540 33,000  Level Atlanta Center
08:43PM 32.5797 -85.2542 159° South 464 534 33,000  Level Atlanta Center
08:44PM 32.4611 -85.2033 160° South 464 534 33,000  Level Atlanta Center
08:45PM 32.3406 -85.1475 159° South 469 540 33,000  Level Atlanta Center
08:47PM 32.0794 -85.0331 160° South 460 529 33,000  Level Jacksonville Center
08:48PM 31.9614 -84.9789 159° South 460 529 33,000  Level Jacksonville Center
08:49PM 31.8453 -84.9322 161° South 460 529 33,000  Level Jacksonville Center
08:50PM 31.7292 -84.8783 158° South 455 524 33,000  Level Jacksonville Center
08:51PM 31.6069 -84.8269 160° South 455 524 33,000  Level Jacksonville Center
08:52PM 31.4908 -84.7758 159° South 455 524 33,000  Level Jacksonville Center
08:53PM 31.3703 -84.7222 159° South 455 524 33,000  Level Jacksonville Center
08:54PM 31.2542 -84.6714 159° South 460 529 33,000  Level Jacksonville Center
08:55PM 31.1339 -84.6133 158° South 460 529 33,000  Level Jacksonville Center
08:56PM 31.0158 -84.5458 154° Southeast 466 536 33,000  Level Jacksonville Center
08:57PM 30.8978 -84.4758 153° Southeast 472 543 33,000  Level Jacksonville Center
08:58PM 30.7836 -84.4064 152° Southeast 477 549 33,000  Level Jacksonville Center
08:59PM 30.6633 -84.3392 154° Southeast 477 549 33,000  Level Jacksonville Center
09:00PM 30.5347 -84.2625 153° Southeast 477 549 33,000  Level Jacksonville Center
09:01PM 30.4186 -84.1958 154° Southeast 472 543 33,000  Level Jacksonville Center
09:02PM 30.3147 -84.1342 153° Southeast 458 527 33,000  Level Jacksonville Center
09:03PM 30.1964 -84.0678 154° Southeast 464 534 33,000  Level Jacksonville Center
09:04PM 30.0800 -83.9992 153° Southeast 464 534 33,000  Level Jacksonville Center
09:05PM 29.9636 -83.9306 153° Southeast 464 534 33,000  Level Jacksonville Center
09:06PM 29.8431 -83.8647 155° Southeast 464 534 33,000  Level Jacksonville Center
09:07PM 29.7247 -83.7967 153° Southeast 464 534 33,000  Level Jacksonville Center
09:08PM 29.6042 -83.7261 153° Southeast 464 534 33,000 -360 Level Jacksonville Center
09:09PM 29.4875 -83.6608 154° Southeast 464 534 32,300 -1,980 Descending Jacksonville Center
09:10PM 29.3689 -83.5931 154° Southeast 464 534 29,100 -3,240 Descending Jacksonville Center
09:11PM 29.2483 -83.5233 153° Southeast 464 534 25,900 -2,580 Descending Jacksonville Center
09:12PM 29.1317 -83.4536 152° Southeast 464 534 24,000 -960 Descending Jacksonville Center
09:13PM 29.0089 -83.3722 150° Southeast 469 540 24,000 -420 Level Jacksonville Center
09:14PM 28.8944 -83.3006 151° Southeast 469 540 23,200 -1,800 Descending Jacksonville Center
09:15PM 28.7861 -83.2314 151° Southeast 463 533 20,400 -2,640 Descending Jacksonville Center
09:17PM 28.5667 -83.1000 152° Southeast 410 472 15,000 -2,640 Descending Tampa TRACON
09:18PM 28.4667 -83.0333 150° Southeast 403 464 12,100 -2,040 Descending Tampa TRACON
09:19PM 28.3667 -82.9667 150° Southeast 398 458 11,000 -660 Descending Tampa TRACON
09:20PM 28.2667 -82.9167 156° South 380 437 10,800 -540 Descending Tampa TRACON
09:21PM 28.2000 -82.8667 147° Southeast 324 373 10,000 -1,320 Descending Tampa TRACON
09:22PM 28.1167 -82.8333 161° South 294 338 8,200 -2,220 Descending Tampa TRACON
09:23PM 28.0333 -82.8000 161° South 285 328 5,600 -2,400 Descending Tampa TRACON
09:24PM 27.9667 -82.7833 168° South 281 323 3,400 -1,620 Descending Tampa TRACON
09:25PM 27.9000 -82.7667 168° South 224 258 2,400 -900 Descending Tampa TRACON
09:26PM 27.8500 -82.7500 164° South 208 239 1,600 -600 Descending Tampa TRACON
09:27PM 27.8333 -82.7000 111° Southeast 167 192 1,200 -420 Descending Tampa TRACON